Aeroporto :
LOGIN :

Iscrizione | Disclaimer

   EN    FR    IT 

 










Sommario :    VFR   VFR Marginale   IFR   IFR Intensivo   IFR Molto Intensivo
Visibilità : 
Base nubi : 
>= 8 km
>= 3000ft
5 / 8 km
1000 / 3000 ft
1500m / 5 km
500 / 1000 ft
800 / 1500m
200 / 500 ft
< 800m
< 200 ft
Simboli :   Temporali  Nebbia  Neve Forte  Precipitazioni Forti  Vento > 20 kt
SIGMETs :   Varie  Temporali  Ghiacco  Turbolenza  Onda orograficha  Ceneri Vulcaniche






- Altitudine del aeroporto : 436 ft
- Codice IATA : ANG


LFBU - Angoulême Brie Champniers

ULTIMO METAR :
  • 141900Z AUTO 17002KT 9999 SCT005 SCT009 BKN022 05/04 Q0997 TEMPO 3000 SHRA BKN012TCU

METARs OBSOLETI :
  • 141830Z AUTO 18003KT 9999 FEW010 OVC029 05/05 Q0997 TEMPO 3000 SHRA BKN012TCU
  • 141800Z AUTO VRB03KT 9999 FEW013 BKN019 BKN025 06/05 Q0997
  • 141730Z AUTO VRB02KT 9999 FEW015 BKN032 BKN041 06/05 Q0997 TEMPO 3000 SHRA BKN014TCU
  • 141700Z AUTO 19004KT 9999 -RA BKN014 BKN020 BKN035 06/04 Q0997
  • 141630Z AUTO VRB02KT 9999 BKN013 OVC037 06/05 Q0997 TEMPO 3000 SHRA BKN014TCU

TAF TAF LFBU
Valido dal 14 a 18 ore il 15 a 18 ore UTC


141700Z 1418/1518 VRB03KT 9999 BKN020
TEMPO 1418/1421 3000 SHRA BKN012TCU
TEMPO 1421/1510 3000 BR OVC005
PROB40 1500/1508 0400 FG VV///
BECMG 1514/1516 CAVOK



MetMap, La meteo Aeronautica in un colpo d'occhio ! - Copyright ORBIFLY Dicembre 2007 - Disclaimer

ORBIFLY MET'MAP TEAM :

Programmazione e sviluppo : Alexandra Zaïnal
Concezione e sviluppo : Baudouin d'Aumeries
Co-Programmazione e sviluppo : Marc-Olivier Méhu
Supporto tecnico e logistico : Manuel Goepfert
Aiuto per la traduzione : Arnaldo La Scala

Contatto : metmap@orbifly.com




FONTI E CREDITI :

   NOAA